CheckWX is a tool to help pilots better visualize weather data.  It is not intended as a substitute for an official pre-flight weather briefing.

05:00:46 UTC

KFTK TAF
Godman AAF Airport
Fort Knox, Kentucky, USA
TAF KFTK 010100Z 0101/0207 VRB06KT 9999 SKC QNH3022INS TEMPO 0114/0117 11010G15KT BECMG 0200/0201 16006KT 9999 SCT070 QNH3017INS TX25/0121Z TN10/0110Z

Jun-1@
01:00 UTC

Jun-1 @ 01:00 UTC

Jun-2@
00:00 UTC

Jun-2 @ 00:00 UTC

TAF KFTK 010100Z 0101/0207 VRB06KT 9999 SKC QNH3022INS

Expired

Wind
  • Variable at 6 KTS
Cloud Levels
  • Clear skies

Jun-1@
14:00 UTC

Jun-1 @ 14:00 UTC

Jun-1@
17:00 UTC

Jun-1 @ 17:00 UTC

TEMPO 0114/0117 11010G15KT

Expired

Wind
  • 110° at 10 KTS
  • {Gusting to 15 KTS
Cloud Levels

Jun-2@
00:00 UTC

Jun-2 @ 00:00 UTC

Jun-2@
07:00 UTC

Jun-2 @ 07:00 UTC

BECMG 0200/0201 16006KT 9999 SCT070 QNH3017INS TX25/0121Z TN10/0110Z

Becoming

Becoming Conditions expected by Tue, Jun 2, 2020 @ 01:00 UTC

Wind
  • 160° at 6 KTS
Cloud Levels
  • Scattered at 7,000' AGL